sensor_id;sensor_type;location;lat;lon;timestamp;temperature;humidity
14144;DHT22;7152;48.348;10.980;2022-08-20T00:01:01;17.30;99.90
14144;DHT22;7152;48.348;10.980;2022-08-20T00:03:32;17.30;99.90
14144;DHT22;7152;48.348;10.980;2022-08-20T00:06:02;17.30;99.90
14144;DHT22;7152;48.348;10.980;2022-08-20T00:08:29;17.30;99.90
14144;DHT22;7152;48.348;10.980;2022-08-20T00:10:56;17.30;99.90
14144;DHT22;7152;48.348;10.980;2022-08-20T00:13:28;17.30;99.90
14144;DHT22;7152;48.348;10.980;2022-08-20T00:15:54;17.30;99.90
14144;DHT22;7152;48.348;10.980;2022-08-20T00:18:21;17.30;99.90
14144;DHT22;7152;48.348;10.980;2022-08-20T00:20:50;17.30;99.90
14144;DHT22;7152;48.348;10.980;2022-08-20T00:23:17;17.30;99.90
14144;DHT22;7152;48.348;10.980;2022-08-20T00:25:44;17.40;99.90
14144;DHT22;7152;48.348;10.980;2022-08-20T00:28:10;17.40;99.90
14144;DHT22;7152;48.348;10.980;2022-08-20T00:30:38;17.40;99.90
14144;DHT22;7152;48.348;10.980;2022-08-20T00:33:17;17.40;99.90
14144;DHT22;7152;48.348;10.980;2022-08-20T00:35:49;17.40;99.90
14144;DHT22;7152;48.348;10.980;2022-08-20T00:38:15;17.40;99.90
14144;DHT22;7152;48.348;10.980;2022-08-20T00:40:56;17.40;99.90
14144;DHT22;7152;48.348;10.980;2022-08-20T00:43:35;17.40;99.90
14144;DHT22;7152;48.348;10.980;2022-08-20T00:46:05;17.30;99.90
14144;DHT22;7152;48.348;10.980;2022-08-20T00:48:33;17.30;99.90
14144;DHT22;7152;48.348;10.980;2022-08-20T00:51:28;17.30;99.90
14144;DHT22;7152;48.348;10.980;2022-08-20T00:54:01;17.30;99.90
14144;DHT22;7152;48.348;10.980;2022-08-20T00:56:29;17.30;99.90
14144;DHT22;7152;48.348;10.980;2022-08-20T00:58:56;17.30;99.90
14144;DHT22;7152;48.348;10.980;2022-08-20T01:01:21;17.20;99.90
14144;DHT22;7152;48.348;10.980;2022-08-20T01:03:48;17.20;99.90
14144;DHT22;7152;48.348;10.980;2022-08-20T01:06:13;17.20;99.90
14144;DHT22;7152;48.348;10.980;2022-08-20T01:08:39;17.20;99.90
14144;DHT22;7152;48.348;10.980;2022-08-20T01:11:06;17.20;99.90
14144;DHT22;7152;48.348;10.980;2022-08-20T01:13:36;17.20;99.90
14144;DHT22;7152;48.348;10.980;2022-08-20T01:16:05;17.20;99.90
14144;DHT22;7152;48.348;10.980;2022-08-20T01:18:33;17.20;99.90
14144;DHT22;7152;48.348;10.980;2022-08-20T01:21:03;17.20;99.90
14144;DHT22;7152;48.348;10.980;2022-08-20T01:24:16;17.20;99.90
14144;DHT22;7152;48.348;10.980;2022-08-20T01:26:37;17.20;99.90
14144;DHT22;7152;48.348;10.980;2022-08-20T01:29:11;17.20;99.90
14144;DHT22;7152;48.348;10.980;2022-08-20T01:31:39;17.20;99.90
14144;DHT22;7152;48.348;10.980;2022-08-20T01:34:09;17.20;99.90
14144;DHT22;7152;48.348;10.980;2022-08-20T01:36:42;17.20;99.90
14144;DHT22;7152;48.348;10.980;2022-08-20T01:39:11;17.20;99.90
14144;DHT22;7152;48.348;10.980;2022-08-20T01:44:28;17.20;99.90
14144;DHT22;7152;48.348;10.980;2022-08-20T01:46:54;17.20;99.90
14144;DHT22;7152;48.348;10.980;2022-08-20T01:49:26;17.20;99.90
14144;DHT22;7152;48.348;10.980;2022-08-20T01:51:54;17.20;99.90
14144;DHT22;7152;48.348;10.980;2022-08-20T01:54:21;17.20;99.90
14144;DHT22;7152;48.348;10.980;2022-08-20T01:57:13;17.20;99.90
14144;DHT22;7152;48.348;10.980;2022-08-20T01:59:40;17.20;99.90
14144;DHT22;7152;48.348;10.980;2022-08-20T02:02:06;17.20;99.90
14144;DHT22;7152;48.348;10.980;2022-08-20T02:04:33;17.20;99.90
14144;DHT22;7152;48.348;10.980;2022-08-20T02:07:01;17.20;99.90
14144;DHT22;7152;48.348;10.980;2022-08-20T02:09:33;17.30;99.90
14144;DHT22;7152;48.348;10.980;2022-08-20T02:12:00;17.30;99.90
14144;DHT22;7152;48.348;10.980;2022-08-20T02:14:28;17.30;99.90
14144;DHT22;7152;48.348;10.980;2022-08-20T02:16:54;17.30;99.90
14144;DHT22;7152;48.348;10.980;2022-08-20T02:19:30;17.30;99.90
14144;DHT22;7152;48.348;10.980;2022-08-20T02:22:00;17.30;99.90
14144;DHT22;7152;48.348;10.980;2022-08-20T02:24:27;17.30;99.90
14144;DHT22;7152;48.348;10.980;2022-08-20T02:26:53;17.30;99.90
14144;DHT22;7152;48.348;10.980;2022-08-20T02:29:19;17.20;99.90
14144;DHT22;7152;48.348;10.980;2022-08-20T02:31:46;17.30;99.90
14144;DHT22;7152;48.348;10.980;2022-08-20T02:34:13;17.30;99.90
14144;DHT22;7152;48.348;10.980;2022-08-20T02:36:40;17.20;99.90
14144;DHT22;7152;48.348;10.980;2022-08-20T02:39:10;17.20;99.90
14144;DHT22;7152;48.348;10.980;2022-08-20T02:41:37;17.20;99.90
14144;DHT22;7152;48.348;10.980;2022-08-20T02:44:04;17.20;99.90
14144;DHT22;7152;48.348;10.980;2022-08-20T02:46:31;17.20;99.90
14144;DHT22;7152;48.348;10.980;2022-08-20T02:48:57;17.20;99.90
14144;DHT22;7152;48.348;10.980;2022-08-20T02:51:23;17.20;99.90
14144;DHT22;7152;48.348;10.980;2022-08-20T02:53:49;17.20;99.90
14144;DHT22;7152;48.348;10.980;2022-08-20T02:56:15;17.20;99.90
14144;DHT22;7152;48.348;10.980;2022-08-20T02:58:41;17.20;99.90
14144;DHT22;7152;48.348;10.980;2022-08-20T03:01:13;17.20;99.90
14144;DHT22;7152;48.348;10.980;2022-08-20T03:03:40;17.20;99.90
14144;DHT22;7152;48.348;10.980;2022-08-20T03:06:08;17.20;99.90
14144;DHT22;7152;48.348;10.980;2022-08-20T03:08:35;17.20;99.90
14144;DHT22;7152;48.348;10.980;2022-08-20T03:11:01;17.20;99.90
14144;DHT22;7152;48.348;10.980;2022-08-20T03:13:26;17.20;99.90
14144;DHT22;7152;48.348;10.980;2022-08-20T03:15:56;17.10;99.90
14144;DHT22;7152;48.348;10.980;2022-08-20T03:18:24;17.10;99.90
14144;DHT22;7152;48.348;10.980;2022-08-20T03:20:50;17.10;99.90
14144;DHT22;7152;48.348;10.980;2022-08-20T03:23:17;17.10;99.90
14144;DHT22;7152;48.348;10.980;2022-08-20T03:25:45;17.10;99.90
14144;DHT22;7152;48.348;10.980;2022-08-20T03:28:11;17.10;99.90
14144;DHT22;7152;48.348;10.980;2022-08-20T03:30:38;17.10;99.90
14144;DHT22;7152;48.348;10.980;2022-08-20T03:33:04;17.10;99.90
14144;DHT22;7152;48.348;10.980;2022-08-20T03:35:31;17.10;99.90
14144;DHT22;7152;48.348;10.980;2022-08-20T03:37:57;17.10;99.90
14144;DHT22;7152;48.348;10.980;2022-08-20T03:40:30;17.10;99.90
14144;DHT22;7152;48.348;10.980;2022-08-20T03:42:56;17.10;99.90
14144;DHT22;7152;48.348;10.980;2022-08-20T03:45:23;17.00;99.90
14144;DHT22;7152;48.348;10.980;2022-08-20T03:47:51;17.00;99.90
14144;DHT22;7152;48.348;10.980;2022-08-20T03:50:22;17.00;99.90
14144;DHT22;7152;48.348;10.980;2022-08-20T03:52:49;17.10;99.90
14144;DHT22;7152;48.348;10.980;2022-08-20T03:55:15;17.00;99.90
14144;DHT22;7152;48.348;10.980;2022-08-20T03:57:46;17.00;99.90
14144;DHT22;7152;48.348;10.980;2022-08-20T04:00:13;17.00;99.90
14144;DHT22;7152;48.348;10.980;2022-08-20T04:02:39;17.00;99.90
14144;DHT22;7152;48.348;10.980;2022-08-20T04:05:05;17.00;99.90
14144;DHT22;7152;48.348;10.980;2022-08-20T04:07:32;17.00;99.90
14144;DHT22;7152;48.348;10.980;2022-08-20T04:09:57;17.00;99.90
14144;DHT22;7152;48.348;10.980;2022-08-20T04:12:24;17.00;99.90
14144;DHT22;7152;48.348;10.980;2022-08-20T04:14:51;17.00;99.90
14144;DHT22;7152;48.348;10.980;2022-08-20T04:17:18;17.00;99.90
14144;DHT22;7152;48.348;10.980;2022-08-20T04:19:44;17.00;99.90
14144;DHT22;7152;48.348;10.980;2022-08-20T04:22:11;17.00;99.90
14144;DHT22;7152;48.348;10.980;2022-08-20T04:24:41;17.00;99.90
14144;DHT22;7152;48.348;10.980;2022-08-20T04:27:07;17.00;99.90
14144;DHT22;7152;48.348;10.980;2022-08-20T04:29:34;17.00;99.90
14144;DHT22;7152;48.348;10.980;2022-08-20T04:32:02;17.00;99.90
14144;DHT22;7152;48.348;10.980;2022-08-20T04:34:28;17.00;99.90
14144;DHT22;7152;48.348;10.980;2022-08-20T04:36:55;17.00;99.90
14144;DHT22;7152;48.348;10.980;2022-08-20T04:39:21;17.10;99.90
14144;DHT22;7152;48.348;10.980;2022-08-20T04:41:46;17.10;99.90
14144;DHT22;7152;48.348;10.980;2022-08-20T04:44:13;17.10;99.90
14144;DHT22;7152;48.348;10.980;2022-08-20T04:46:39;17.10;99.90
14144;DHT22;7152;48.348;10.980;2022-08-20T04:49:05;17.10;99.90
14144;DHT22;7152;48.348;10.980;2022-08-20T04:51:32;17.10;99.90
14144;DHT22;7152;48.348;10.980;2022-08-20T04:53:59;17.20;99.90
14144;DHT22;7152;48.348;10.980;2022-08-20T04:56:32;17.20;99.90
14144;DHT22;7152;48.348;10.980;2022-08-20T04:59:03;17.20;99.90
14144;DHT22;7152;48.348;10.980;2022-08-20T05:01:29;17.20;99.90
14144;DHT22;7152;48.348;10.980;2022-08-20T05:03:56;17.30;99.90
14144;DHT22;7152;48.348;10.980;2022-08-20T05:06:24;17.30;99.90
14144;DHT22;7152;48.348;10.980;2022-08-20T05:08:50;17.40;99.90
14144;DHT22;7152;48.348;10.980;2022-08-20T05:11:16;17.40;99.90
14144;DHT22;7152;48.348;10.980;2022-08-20T05:13:42;17.40;99.90
14144;DHT22;7152;48.348;10.980;2022-08-20T05:16:08;17.50;99.90
14144;DHT22;7152;48.348;10.980;2022-08-20T05:18:34;17.50;99.90
14144;DHT22;7152;48.348;10.980;2022-08-20T05:21:01;17.60;99.90
14144;DHT22;7152;48.348;10.980;2022-08-20T05:23:36;17.50;99.90
14144;DHT22;7152;48.348;10.980;2022-08-20T05:26:10;17.60;99.90
14144;DHT22;7152;48.348;10.980;2022-08-20T05:28:38;17.60;99.90
14144;DHT22;7152;48.348;10.980;2022-08-20T05:31:05;17.60;99.90
14144;DHT22;7152;48.348;10.980;2022-08-20T05:33:34;17.60;99.90
14144;DHT22;7152;48.348;10.980;2022-08-20T05:36:00;17.60;99.90
14144;DHT22;7152;48.348;10.980;2022-08-20T05:38:28;17.60;99.90
14144;DHT22;7152;48.348;10.980;2022-08-20T05:40:53;17.60;99.90
14144;DHT22;7152;48.348;10.980;2022-08-20T05:43:19;17.70;99.90
14144;DHT22;7152;48.348;10.980;2022-08-20T05:45:47;17.70;99.90
14144;DHT22;7152;48.348;10.980;2022-08-20T05:48:21;17.70;99.90
14144;DHT22;7152;48.348;10.980;2022-08-20T05:50:49;17.70;99.90
14144;DHT22;7152;48.348;10.980;2022-08-20T05:53:16;17.70;99.90
14144;DHT22;7152;48.348;10.980;2022-08-20T05:55:42;17.70;99.90
14144;DHT22;7152;48.348;10.980;2022-08-20T05:58:17;17.70;99.90
14144;DHT22;7152;48.348;10.980;2022-08-20T06:00:43;17.70;99.90
14144;DHT22;7152;48.348;10.980;2022-08-20T06:03:08;17.70;99.90
14144;DHT22;7152;48.348;10.980;2022-08-20T06:05:52;17.70;99.90
14144;DHT22;7152;48.348;10.980;2022-08-20T06:08:18;17.70;99.90
14144;DHT22;7152;48.348;10.980;2022-08-20T06:10:44;17.70;99.90
14144;DHT22;7152;48.348;10.980;2022-08-20T06:13:10;17.70;99.90
14144;DHT22;7152;48.348;10.980;2022-08-20T06:15:36;17.70;99.90
14144;DHT22;7152;48.348;10.980;2022-08-20T06:18:05;17.70;99.90
14144;DHT22;7152;48.348;10.980;2022-08-20T06:20:33;17.70;99.90
14144;DHT22;7152;48.348;10.980;2022-08-20T06:22:59;17.70;99.90
14144;DHT22;7152;48.348;10.980;2022-08-20T06:25:24;17.70;99.90
14144;DHT22;7152;48.348;10.980;2022-08-20T06:27:50;17.70;99.90
14144;DHT22;7152;48.348;10.980;2022-08-20T06:30:16;17.70;99.90
14144;DHT22;7152;48.348;10.980;2022-08-20T06:32:43;17.70;99.90
14144;DHT22;7152;48.348;10.980;2022-08-20T06:35:09;17.80;99.90
14144;DHT22;7152;48.348;10.980;2022-08-20T06:37:38;17.80;99.90
14144;DHT22;7152;48.348;10.980;2022-08-20T06:42:33;17.90;99.90
14144;DHT22;7152;48.348;10.980;2022-08-20T06:44:59;17.80;99.90
14144;DHT22;7152;48.348;10.980;2022-08-20T06:47:29;17.90;99.90
14144;DHT22;7152;48.348;10.980;2022-08-20T06:49:55;17.90;99.90
14144;DHT22;7152;48.348;10.980;2022-08-20T06:52:21;18.00;99.90
14144;DHT22;7152;48.348;10.980;2022-08-20T06:54:47;18.00;99.90
14144;DHT22;7152;48.348;10.980;2022-08-20T06:57:13;18.10;99.90
14144;DHT22;7152;48.348;10.980;2022-08-20T06:59:38;18.10;99.90
14144;DHT22;7152;48.348;10.980;2022-08-20T07:02:04;18.20;99.90
14144;DHT22;7152;48.348;10.980;2022-08-20T07:04:30;18.30;99.90
14144;DHT22;7152;48.348;10.980;2022-08-20T07:06:56;18.30;99.90
14144;DHT22;7152;48.348;10.980;2022-08-20T07:09:23;18.40;99.90
14144;DHT22;7152;48.348;10.980;2022-08-20T07:11:48;18.40;99.90
14144;DHT22;7152;48.348;10.980;2022-08-20T07:14:15;18.40;99.90
14144;DHT22;7152;48.348;10.980;2022-08-20T07:16:43;18.50;99.90
14144;DHT22;7152;48.348;10.980;2022-08-20T07:19:09;18.60;99.90
14144;DHT22;7152;48.348;10.980;2022-08-20T07:21:35;18.60;99.90
14144;DHT22;7152;48.348;10.980;2022-08-20T07:24:01;18.70;99.90
14144;DHT22;7152;48.348;10.980;2022-08-20T07:26:27;18.80;99.90
14144;DHT22;7152;48.348;10.980;2022-08-20T07:28:53;18.70;99.90
14144;DHT22;7152;48.348;10.980;2022-08-20T07:31:19;18.80;99.90
14144;DHT22;7152;48.348;10.980;2022-08-20T07:34:04;18.90;99.90
14144;DHT22;7152;48.348;10.980;2022-08-20T07:36:30;18.90;99.90
14144;DHT22;7152;48.348;10.980;2022-08-20T07:38:56;19.00;99.90
14144;DHT22;7152;48.348;10.980;2022-08-20T07:41:21;19.00;99.90
14144;DHT22;7152;48.348;10.980;2022-08-20T07:43:47;19.10;99.90
14144;DHT22;7152;48.348;10.980;2022-08-20T07:46:15;19.10;99.90
14144;DHT22;7152;48.348;10.980;2022-08-20T07:48:47;19.10;99.90
14144;DHT22;7152;48.348;10.980;2022-08-20T07:51:16;19.20;99.90
14144;DHT22;7152;48.348;10.980;2022-08-20T07:53:43;19.20;99.90
14144;DHT22;7152;48.348;10.980;2022-08-20T07:56:12;19.20;99.90
14144;DHT22;7152;48.348;10.980;2022-08-20T07:58:43;19.30;99.90
14144;DHT22;7152;48.348;10.980;2022-08-20T08:01:19;19.30;99.90
14144;DHT22;7152;48.348;10.980;2022-08-20T08:03:49;19.30;99.90
14144;DHT22;7152;48.348;10.980;2022-08-20T08:06:16;19.30;99.90
14144;DHT22;7152;48.348;10.980;2022-08-20T08:08:43;19.40;99.90
14144;DHT22;7152;48.348;10.980;2022-08-20T08:11:10;19.40;99.90
14144;DHT22;7152;48.348;10.980;2022-08-20T08:13:39;19.30;99.90
14144;DHT22;7152;48.348;10.980;2022-08-20T08:16:07;19.30;99.90
14144;DHT22;7152;48.348;10.980;2022-08-20T08:18:36;19.40;99.90
14144;DHT22;7152;48.348;10.980;2022-08-20T08:21:05;19.40;99.90
14144;DHT22;7152;48.348;10.980;2022-08-20T08:23:31;19.40;99.90
14144;DHT22;7152;48.348;10.980;2022-08-20T08:25:59;19.40;99.90
14144;DHT22;7152;48.348;10.980;2022-08-20T08:28:25;19.40;99.90
14144;DHT22;7152;48.348;10.980;2022-08-20T08:30:52;19.40;99.90
14144;DHT22;7152;48.348;10.980;2022-08-20T08:33:21;19.50;99.90
14144;DHT22;7152;48.348;10.980;2022-08-20T08:36:04;19.50;99.90
14144;DHT22;7152;48.348;10.980;2022-08-20T08:38:32;19.50;99.90
14144;DHT22;7152;48.348;10.980;2022-08-20T08:41:50;19.50;99.90
14144;DHT22;7152;48.348;10.980;2022-08-20T08:44:10;19.60;99.90
14144;DHT22;7152;48.348;10.980;2022-08-20T08:46:44;19.70;99.90
14144;DHT22;7152;48.348;10.980;2022-08-20T08:49:18;19.80;99.90
14144;DHT22;7152;48.348;10.980;2022-08-20T08:51:53;19.80;99.90
14144;DHT22;7152;48.348;10.980;2022-08-20T08:54:23;19.80;99.90
14144;DHT22;7152;48.348;10.980;2022-08-20T08:56:51;19.80;99.90
14144;DHT22;7152;48.348;10.980;2022-08-20T08:59:18;19.90;99.90
14144;DHT22;7152;48.348;10.980;2022-08-20T09:01:47;19.90;99.90
14144;DHT22;7152;48.348;10.980;2022-08-20T09:04:14;19.90;99.90
14144;DHT22;7152;48.348;10.980;2022-08-20T09:06:41;19.90;99.90
14144;DHT22;7152;48.348;10.980;2022-08-20T09:09:17;19.90;99.90
14144;DHT22;7152;48.348;10.980;2022-08-20T09:11:47;19.90;99.90
14144;DHT22;7152;48.348;10.980;2022-08-20T09:14:13;19.90;99.90
14144;DHT22;7152;48.348;10.980;2022-08-20T09:16:38;20.00;99.90
14144;DHT22;7152;48.348;10.980;2022-08-20T09:19:04;20.10;99.90
14144;DHT22;7152;48.348;10.980;2022-08-20T09:21:30;20.10;99.90
14144;DHT22;7152;48.348;10.980;2022-08-20T09:23:55;20.10;99.90
14144;DHT22;7152;48.348;10.980;2022-08-20T09:26:21;20.20;99.90
14144;DHT22;7152;48.348;10.980;2022-08-20T09:28:46;20.20;99.90
14144;DHT22;7152;48.348;10.980;2022-08-20T09:31:12;20.10;99.90
14144;DHT22;7152;48.348;10.980;2022-08-20T09:33:38;20.20;99.90
14144;DHT22;7152;48.348;10.980;2022-08-20T09:36:03;20.10;99.90
14144;DHT22;7152;48.348;10.980;2022-08-20T09:38:29;20.10;99.90
14144;DHT22;7152;48.348;10.980;2022-08-20T09:40:55;20.10;99.90
14144;DHT22;7152;48.348;10.980;2022-08-20T09:43:22;20.10;99.90
14144;DHT22;7152;48.348;10.980;2022-08-20T09:45:47;20.10;99.90
14144;DHT22;7152;48.348;10.980;2022-08-20T09:48:13;20.10;99.90
14144;DHT22;7152;48.348;10.980;2022-08-20T09:50:41;20.10;99.90
14144;DHT22;7152;48.348;10.980;2022-08-20T09:53:08;20.20;99.90
14144;DHT22;7152;48.348;10.980;2022-08-20T09:55:41;20.30;99.90
14144;DHT22;7152;48.348;10.980;2022-08-20T09:58:30;20.40;99.90
14144;DHT22;7152;48.348;10.980;2022-08-20T10:00:58;20.50;99.90
14144;DHT22;7152;48.348;10.980;2022-08-20T10:03:25;20.50;99.90
14144;DHT22;7152;48.348;10.980;2022-08-20T10:05:50;20.70;99.90
14144;DHT22;7152;48.348;10.980;2022-08-20T10:08:16;20.80;99.90
14144;DHT22;7152;48.348;10.980;2022-08-20T10:10:42;20.90;99.90
14144;DHT22;7152;48.348;10.980;2022-08-20T10:13:08;21.00;99.90
14144;DHT22;7152;48.348;10.980;2022-08-20T10:15:34;21.00;99.90
14144;DHT22;7152;48.348;10.980;2022-08-20T10:18:02;21.10;99.90
14144;DHT22;7152;48.348;10.980;2022-08-20T10:20:30;21.10;99.90
14144;DHT22;7152;48.348;10.980;2022-08-20T10:22:55;21.00;99.90
14144;DHT22;7152;48.348;10.980;2022-08-20T10:25:21;21.00;99.90
14144;DHT22;7152;48.348;10.980;2022-08-20T10:27:47;21.00;99.90
14144;DHT22;7152;48.348;10.980;2022-08-20T10:30:12;20.90;99.90
14144;DHT22;7152;48.348;10.980;2022-08-20T10:32:38;20.90;99.90
14144;DHT22;7152;48.348;10.980;2022-08-20T10:35:04;20.90;99.90
14144;DHT22;7152;48.348;10.980;2022-08-20T10:37:30;20.90;99.90
14144;DHT22;7152;48.348;10.980;2022-08-20T10:39:56;21.00;99.90
14144;DHT22;7152;48.348;10.980;2022-08-20T10:42:22;21.10;99.90
14144;DHT22;7152;48.348;10.980;2022-08-20T10:44:48;21.20;99.90
14144;DHT22;7152;48.348;10.980;2022-08-20T10:47:26;21.40;99.90
14144;DHT22;7152;48.348;10.980;2022-08-20T10:49:56;21.60;99.90
14144;DHT22;7152;48.348;10.980;2022-08-20T10:52:22;21.80;99.90
14144;DHT22;7152;48.348;10.980;2022-08-20T10:54:48;21.90;99.90
14144;DHT22;7152;48.348;10.980;2022-08-20T10:57:23;22.00;99.90
14144;DHT22;7152;48.348;10.980;2022-08-20T10:59:50;22.00;99.90
14144;DHT22;7152;48.348;10.980;2022-08-20T11:02:18;22.10;99.90
14144;DHT22;7152;48.348;10.980;2022-08-20T11:04:44;22.10;99.90
14144;DHT22;7152;48.348;10.980;2022-08-20T11:09:40;22.30;99.90
14144;DHT22;7152;48.348;10.980;2022-08-20T11:12:06;22.40;99.90
14144;DHT22;7152;48.348;10.980;2022-08-20T11:14:32;22.50;99.90
14144;DHT22;7152;48.348;10.980;2022-08-20T11:16:58;22.60;99.90
14144;DHT22;7152;48.348;10.980;2022-08-20T11:19:24;22.80;99.90
14144;DHT22;7152;48.348;10.980;2022-08-20T11:21:50;23.00;99.90
14144;DHT22;7152;48.348;10.980;2022-08-20T11:24:16;23.10;99.90
14144;DHT22;7152;48.348;10.980;2022-08-20T11:26:45;23.10;99.90
14144;DHT22;7152;48.348;10.980;2022-08-20T11:29:11;23.00;99.90
14144;DHT22;7152;48.348;10.980;2022-08-20T11:31:37;23.00;99.90
14144;DHT22;7152;48.348;10.980;2022-08-20T11:34:03;22.80;99.90
14144;DHT22;7152;48.348;10.980;2022-08-20T11:36:28;22.80;99.90
14144;DHT22;7152;48.348;10.980;2022-08-20T11:38:54;22.60;99.90
14144;DHT22;7152;48.348;10.980;2022-08-20T11:41:20;22.50;99.90
14144;DHT22;7152;48.348;10.980;2022-08-20T11:43:46;22.40;99.90
14144;DHT22;7152;48.348;10.980;2022-08-20T11:46:11;22.40;99.90
14144;DHT22;7152;48.348;10.980;2022-08-20T11:48:37;22.40;99.90
14144;DHT22;7152;48.348;10.980;2022-08-20T11:51:02;22.40;99.90
14144;DHT22;7152;48.348;10.980;2022-08-20T11:53:28;22.30;99.90
14144;DHT22;7152;48.348;10.980;2022-08-20T11:55:55;22.30;99.90
14144;DHT22;7152;48.348;10.980;2022-08-20T11:58:20;22.30;99.90
14144;DHT22;7152;48.348;10.980;2022-08-20T12:00:46;22.30;99.90
14144;DHT22;7152;48.348;10.980;2022-08-20T12:03:12;22.30;99.90
14144;DHT22;7152;48.348;10.980;2022-08-20T12:05:40;22.30;99.90
14144;DHT22;7152;48.348;10.980;2022-08-20T12:08:06;22.40;99.90
14144;DHT22;7152;48.348;10.980;2022-08-20T12:10:33;22.50;99.90
14144;DHT22;7152;48.348;10.980;2022-08-20T12:12:58;22.60;99.90
14144;DHT22;7152;48.348;10.980;2022-08-20T12:15:24;22.70;99.90
14144;DHT22;7152;48.348;10.980;2022-08-20T12:17:51;22.80;99.90
14144;DHT22;7152;48.348;10.980;2022-08-20T12:20:17;23.10;99.90
14144;DHT22;7152;48.348;10.980;2022-08-20T12:22:43;23.30;99.90
14144;DHT22;7152;48.348;10.980;2022-08-20T12:25:10;23.50;99.90
14144;DHT22;7152;48.348;10.980;2022-08-20T12:27:36;23.70;99.90
14144;DHT22;7152;48.348;10.980;2022-08-20T12:30:14;23.80;99.90
14144;DHT22;7152;48.348;10.980;2022-08-20T12:32:40;23.90;99.90
14144;DHT22;7152;48.348;10.980;2022-08-20T12:35:07;23.90;99.90
14144;DHT22;7152;48.348;10.980;2022-08-20T12:37:34;23.80;99.90
14144;DHT22;7152;48.348;10.980;2022-08-20T12:40:02;23.80;99.90
14144;DHT22;7152;48.348;10.980;2022-08-20T12:42:28;23.60;99.90
14144;DHT22;7152;48.348;10.980;2022-08-20T12:44:58;23.50;99.90
14144;DHT22;7152;48.348;10.980;2022-08-20T12:47:30;23.40;99.90
14144;DHT22;7152;48.348;10.980;2022-08-20T12:50:02;23.30;99.90
14144;DHT22;7152;48.348;10.980;2022-08-20T12:52:30;23.20;99.90
14144;DHT22;7152;48.348;10.980;2022-08-20T12:54:56;23.20;99.90
14144;DHT22;7152;48.348;10.980;2022-08-20T13:00:02;23.50;99.90
14144;DHT22;7152;48.348;10.980;2022-08-20T13:02:29;23.70;99.90
14144;DHT22;7152;48.348;10.980;2022-08-20T13:04:54;23.80;99.90
14144;DHT22;7152;48.348;10.980;2022-08-20T13:07:20;23.90;99.90
14144;DHT22;7152;48.348;10.980;2022-08-20T13:09:45;23.80;99.90
14144;DHT22;7152;48.348;10.980;2022-08-20T13:12:11;23.70;99.90
14144;DHT22;7152;48.348;10.980;2022-08-20T13:14:39;23.50;99.90
14144;DHT22;7152;48.348;10.980;2022-08-20T13:17:06;23.40;99.90
14144;DHT22;7152;48.348;10.980;2022-08-20T13:19:33;23.10;99.90
14144;DHT22;7152;48.348;10.980;2022-08-20T13:21:59;23.00;99.90
14144;DHT22;7152;48.348;10.980;2022-08-20T13:24:24;22.80;99.90
14144;DHT22;7152;48.348;10.980;2022-08-20T13:26:50;22.50;99.90
14144;DHT22;7152;48.348;10.980;2022-08-20T13:29:17;22.30;99.90
14144;DHT22;7152;48.348;10.980;2022-08-20T13:31:42;22.10;99.90
14144;DHT22;7152;48.348;10.980;2022-08-20T13:34:08;22.10;99.90
14144;DHT22;7152;48.348;10.980;2022-08-20T13:36:35;22.00;99.90
14144;DHT22;7152;48.348;10.980;2022-08-20T13:39:03;22.00;99.90
14144;DHT22;7152;48.348;10.980;2022-08-20T13:41:29;21.90;99.90
14144;DHT22;7152;48.348;10.980;2022-08-20T13:43:54;21.80;99.90
14144;DHT22;7152;48.348;10.980;2022-08-20T13:46:20;21.60;99.90
14144;DHT22;7152;48.348;10.980;2022-08-20T13:48:45;21.40;99.90
14144;DHT22;7152;48.348;10.980;2022-08-20T13:51:11;21.20;99.90
14144;DHT22;7152;48.348;10.980;2022-08-20T13:53:37;21.00;99.90
14144;DHT22;7152;48.348;10.980;2022-08-20T13:56:03;20.70;99.90
14144;DHT22;7152;48.348;10.980;2022-08-20T13:58:28;20.60;99.90
14144;DHT22;7152;48.348;10.980;2022-08-20T14:00:54;20.50;99.90
14144;DHT22;7152;48.348;10.980;2022-08-20T14:03:20;20.50;99.90
14144;DHT22;7152;48.348;10.980;2022-08-20T14:05:45;20.40;99.90
14144;DHT22;7152;48.348;10.980;2022-08-20T14:08:18;20.20;99.90
14144;DHT22;7152;48.348;10.980;2022-08-20T14:10:45;20.20;99.90
14144;DHT22;7152;48.348;10.980;2022-08-20T14:13:15;20.10;99.90
14144;DHT22;7152;48.348;10.980;2022-08-20T14:15:42;20.00;99.90
14144;DHT22;7152;48.348;10.980;2022-08-20T14:18:08;19.90;99.90
14144;DHT22;7152;48.348;10.980;2022-08-20T14:20:35;19.80;99.90
14144;DHT22;7152;48.348;10.980;2022-08-20T14:23:01;19.50;99.90
14144;DHT22;7152;48.348;10.980;2022-08-20T14:25:29;19.20;99.90
14144;DHT22;7152;48.348;10.980;2022-08-20T14:27:55;19.00;99.90
14144;DHT22;7152;48.348;10.980;2022-08-20T14:30:24;18.70;99.90
14144;DHT22;7152;48.348;10.980;2022-08-20T14:32:50;18.50;99.90
14144;DHT22;7152;48.348;10.980;2022-08-20T14:35:16;18.40;99.90
14144;DHT22;7152;48.348;10.980;2022-08-20T14:37:46;18.30;99.90
14144;DHT22;7152;48.348;10.980;2022-08-20T14:40:14;18.20;99.90
14144;DHT22;7152;48.348;10.980;2022-08-20T14:42:40;18.10;99.90
14144;DHT22;7152;48.348;10.980;2022-08-20T14:45:07;18.00;99.90
14144;DHT22;7152;48.348;10.980;2022-08-20T14:47:36;18.00;99.90
14144;DHT22;7152;48.348;10.980;2022-08-20T14:50:06;18.00;99.90
14144;DHT22;7152;48.348;10.980;2022-08-20T14:52:32;17.90;99.90
14144;DHT22;7152;48.348;10.980;2022-08-20T14:55:02;17.90;99.90
14144;DHT22;7152;48.348;10.980;2022-08-20T14:57:29;17.90;99.90
14144;DHT22;7152;48.348;10.980;2022-08-20T14:59:55;17.90;99.90
14144;DHT22;7152;48.348;10.980;2022-08-20T15:02:20;17.90;99.90
14144;DHT22;7152;48.348;10.980;2022-08-20T15:04:46;17.90;99.90
14144;DHT22;7152;48.348;10.980;2022-08-20T15:09:46;17.90;99.90
14144;DHT22;7152;48.348;10.980;2022-08-20T15:12:12;17.90;99.90
14144;DHT22;7152;48.348;10.980;2022-08-20T15:14:37;17.90;99.90
14144;DHT22;7152;48.348;10.980;2022-08-20T15:17:03;18.00;99.90
14144;DHT22;7152;48.348;10.980;2022-08-20T15:19:29;18.00;99.90
14144;DHT22;7152;48.348;10.980;2022-08-20T15:21:54;18.10;99.90
14144;DHT22;7152;48.348;10.980;2022-08-20T15:24:20;18.10;99.90
14144;DHT22;7152;48.348;10.980;2022-08-20T15:26:46;18.30;99.90
14144;DHT22;7152;48.348;10.980;2022-08-20T15:29:12;18.40;99.90
14144;DHT22;7152;48.348;10.980;2022-08-20T15:31:38;18.50;99.90
14144;DHT22;7152;48.348;10.980;2022-08-20T15:34:04;18.70;99.90
14144;DHT22;7152;48.348;10.980;2022-08-20T15:36:29;18.80;99.90
14144;DHT22;7152;48.348;10.980;2022-08-20T15:38:55;18.90;99.90
14144;DHT22;7152;48.348;10.980;2022-08-20T15:41:20;19.00;99.90
14144;DHT22;7152;48.348;10.980;2022-08-20T15:43:46;19.10;99.90
14144;DHT22;7152;48.348;10.980;2022-08-20T15:46:12;19.20;99.90